createdAt,value
2023-08-08T00:04:02.648Z,70.45
2023-08-08T00:14:03.257Z,71.00
2023-08-08T00:24:03.930Z,71.80
2023-08-08T00:34:04.419Z,72.14
2023-08-08T00:44:04.995Z,72.55
2023-08-08T00:54:05.530Z,72.45
2023-08-08T01:04:06.119Z,72.99
2023-08-08T01:14:06.641Z,72.38
2023-08-08T01:24:07.226Z,71.97
2023-08-08T01:34:07.779Z,72.41
2023-08-08T01:44:08.451Z,72.31
2023-08-08T01:54:08.966Z,72.31
2023-08-08T02:04:09.531Z,71.06
2023-08-08T02:14:10.081Z,71.30
2023-08-08T02:24:10.729Z,70.99
2023-08-08T02:34:18.223Z,70.99
2023-08-08T02:44:11.782Z,71.80
2023-08-08T02:54:12.359Z,72.85
2023-08-08T03:04:12.971Z,74.28
2023-08-08T03:14:13.392Z,75.33
2023-08-08T03:24:13.924Z,75.94
2023-08-08T03:34:14.444Z,76.04
2023-08-08T03:44:14.945Z,76.65
2023-08-08T03:54:15.416Z,76.92
2023-08-08T04:04:16.009Z,77.43
2023-08-08T04:14:16.454Z,77.73
2023-08-08T04:24:16.984Z,77.94
2023-08-08T04:34:17.471Z,77.73
2023-08-08T04:44:17.985Z,77.70
2023-08-08T04:54:18.487Z,77.32
2023-08-08T05:04:18.999Z,71.37
2023-08-08T05:14:19.483Z,72.04
2023-08-08T05:24:20.005Z,69.98
2023-08-08T05:34:20.481Z,71.73
2023-08-08T05:44:20.993Z,69.04
2023-08-08T05:54:21.474Z,69.21
2023-08-08T06:04:21.980Z,72.08
2023-08-08T06:14:22.468Z,71.91
2023-08-08T06:24:23.003Z,71.70
2023-08-08T06:34:23.539Z,72.31
2023-08-08T06:44:24.173Z,71.77
2023-08-08T06:54:24.607Z,72.72
2023-08-08T07:04:25.225Z,72.28
2023-08-08T07:14:25.675Z,71.23
2023-08-08T07:24:26.195Z,69.85
2023-08-08T07:34:26.690Z,70.49
2023-08-08T07:44:27.238Z,69.65
2023-08-08T07:54:27.703Z,68.51
2023-08-08T08:04:28.301Z,67.43
2023-08-08T08:14:28.779Z,66.39
2023-08-08T08:24:29.381Z,65.79
2023-08-08T08:34:36.828Z,65.69
2023-08-08T08:44:30.352Z,63.71
2023-08-08T08:54:30.912Z,63.92
2023-08-08T09:04:31.479Z,62.98
2023-08-08T09:14:31.976Z,62.85
2023-08-08T09:24:32.495Z,61.94
2023-08-08T09:34:32.998Z,62.27
2023-08-08T09:44:33.511Z,62.27
2023-08-08T09:54:33.990Z,62.38
2023-08-08T10:04:34.613Z,69.38
2023-08-08T10:14:35.069Z,72.04
2023-08-08T10:24:35.727Z,70.73
2023-08-08T10:34:36.192Z,68.85
2023-08-08T10:44:36.716Z,64.96
2023-08-08T10:54:37.208Z,65.59
2023-08-08T11:04:37.728Z,64.92
2023-08-08T11:14:38.214Z,60.21
2023-08-08T11:24:38.736Z,58.04
2023-08-08T11:34:39.214Z,53.67
2023-08-08T11:44:39.713Z,57.70
2023-08-08T11:54:40.180Z,58.83
2023-08-08T12:04:40.690Z,58.97
2023-08-08T12:14:51.270Z,57.91
2023-08-08T12:24:43.063Z,56.58
2023-08-08T12:34:42.543Z,57.66
2023-08-08T12:44:43.084Z,58.59
2023-08-08T12:54:43.570Z,59.25
2023-08-08T13:04:44.086Z,57.59
2023-08-08T13:14:44.571Z,51.89
2023-08-08T13:24:45.176Z,48.99
2023-08-08T13:34:45.629Z,50.51
2023-08-08T13:44:46.156Z,57.64
2023-08-08T13:54:46.637Z,70.22
2023-08-08T14:04:47.256Z,71.13
2023-08-08T14:14:47.690Z,68.51
2023-08-08T14:24:48.229Z,66.07
2023-08-08T14:34:48.704Z,65.47
2023-08-08T14:44:49.323Z,63.53
2023-08-08T14:54:49.754Z,63.15
2023-08-08T15:04:50.845Z,64.49
2023-08-08T15:14:50.900Z,63.71
2023-08-08T15:24:51.429Z,64.98
2023-08-08T15:34:51.896Z,73.01
2023-08-08T15:44:52.548Z,83.33
2023-08-08T15:54:53.018Z,83.84
2023-08-08T16:04:53.528Z,81.88
2023-08-08T16:14:54.004Z,81.64
2023-08-08T16:24:54.619Z,83.19
2023-08-08T16:34:55.069Z,82.42
2023-08-08T16:45:02.585Z,84.89
2023-08-08T16:54:56.035Z,84.14
2023-08-08T17:04:56.637Z,82.22
2023-08-08T17:14:57.088Z,83.88
2023-08-08T17:24:57.615Z,82.16
2023-08-08T17:34:58.117Z,83.07
2023-08-08T17:44:58.627Z,82.26
2023-08-08T17:54:59.108Z,81.85
2023-08-08T18:04:59.728Z,81.99
2023-08-08T18:15:00.243Z,81.05
2023-08-08T18:25:00.803Z,81.96
2023-08-08T18:35:01.263Z,81.35
2023-08-08T18:45:01.794Z,81.90
2023-08-08T18:55:02.290Z,81.49
2023-08-08T19:05:02.813Z,82.30
2023-08-08T19:15:03.276Z,81.09
2023-08-08T19:25:03.918Z,80.18
2023-08-08T19:35:04.418Z,79.22
2023-08-08T19:45:04.987Z,77.95
2023-08-08T19:55:05.526Z,77.84
2023-08-08T20:05:06.106Z,77.95
2023-08-08T20:15:06.648Z,78.86
2023-08-08T20:25:07.235Z,80.01
2023-08-08T20:35:07.760Z,83.25
2023-08-08T20:45:08.336Z,82.98
2023-08-08T20:55:08.883Z,84.81
2023-08-08T21:05:09.457Z,85.62
2023-08-08T21:15:09.987Z,86.22
2023-08-08T21:25:10.570Z,85.39
2023-08-08T21:35:11.120Z,84.83
2023-08-08T21:45:11.689Z,82.39
2023-08-08T21:55:12.218Z,85.88
2023-08-08T22:05:12.800Z,84.42
2023-08-08T22:15:13.331Z,81.18
2023-08-08T22:25:14.001Z,83.71
2023-08-08T22:35:14.507Z,84.22
2023-08-08T22:45:22.059Z,84.52
2023-08-08T22:55:15.564Z,84.22
2023-08-08T23:05:16.127Z,85.03
2023-08-08T23:15:16.673Z,85.64
2023-08-08T23:25:17.416Z,85.53
2023-08-08T23:35:18.005Z,85.64
2023-08-08T23:45:18.616Z,86.15
2023-08-08T23:55:19.130Z,86.39
